Time;durP1;ratioP1;P1;durP2;ratioP2;P2;SDS_P1;SDS_P2;PMS_P1;PMS_P2;Temp;Humidity;BMP_temperature;BMP_pressure;BME280_temperature;BME280_humidity;BME280_pressure;Samples;Min_cycle;Max_cycle;Signal;HPM_P1;HPM_P2
2022/05/20 00:00:19;;;;;;;11.83;5.20;;;;;;;18.18;36.95;100806.83;1605158;87;25778;-67
2022/05/20 00:02:48;;;;;;;16.82;4.62;;;;;;;18.16;37.05;100808.29;1605272;87;98710;-66
2022/05/20 00:05:15;;;;;;;17.90;4.33;;;;;;;18.09;37.19;100800.22;1605882;87;25775;-67
2022/05/20 00:07:42;;;;;;;10.25;4.58;;;;;;;18.04;37.34;100789.70;1606308;87;99067;-66
2022/05/20 00:10:15;;;;;;;10.82;4.03;;;;;;;18.03;37.43;100797.95;1612409;87;26368;-66
2022/05/20 00:12:41;;;;;;;12.15;3.95;;;;;;;17.96;37.62;100809.72;1611820;87;99440;-66
2022/05/20 00:15:15;;;;;;;12.80;3.80;;;;;;;17.90;37.75;100796.60;1626040;86;26657;-66
2022/05/20 00:17:41;;;;;;;8.15;4.28;;;;;;;17.84;37.98;100801.97;1605164;87;26466;-66
2022/05/20 00:20:11;;;;;;;10.10;4.12;;;;;;;17.79;38.02;100806.86;1602490;87;98675;-67
2022/05/20 00:22:38;;;;;;;9.58;3.98;;;;;;;17.75;38.18;100816.18;1613537;87;25885;-67
2022/05/20 00:27:53;;;;;;;12.07;4.85;;;;;;;17.72;38.34;100808.75;1610622;86;26460;-68
2022/05/20 00:30:20;;;;;;;11.30;4.58;;;;;;;17.68;38.42;100810.81;1621607;86;25853;-65
2022/05/20 00:32:48;;;;;;;14.55;4.40;;;;;;;17.64;38.56;100805.19;1590313;88;98562;-65
2022/05/20 00:35:15;;;;;;;23.50;4.90;;;;;;;17.59;38.70;100812.77;1619235;86;26909;-65
2022/05/20 00:37:44;;;;;;;14.98;4.35;;;;;;;17.56;38.78;100809.41;1592449;88;98914;-65
2022/05/20 00:40:14;;;;;;;17.07;4.03;;;;;;;17.50;38.93;100810.22;1614590;86;26417;-67
2022/05/20 00:42:41;;;;;;;24.23;4.20;;;;;;;17.44;38.98;100809.77;1565555;89;99116;-67
2022/05/20 00:45:10;;;;;;;11.22;3.83;;;;;;;17.38;39.16;100800.72;1589971;88;27539;-67
2022/05/20 00:47:37;;;;;;;9.10;3.50;;;;;;;17.32;39.26;100800.66;1590707;88;25796;-67
2022/05/20 00:50:19;;;;;;;10.35;3.67;;;;;;;17.25;39.38;100795.77;1587923;88;99263;-67
2022/05/20 00:52:53;;;;;;;18.17;5.22;;;;;;;17.19;39.56;100787.08;1587019;88;25798;-67
2022/05/20 00:55:23;;;;;;;11.10;4.30;;;;;;;17.15;39.69;100795.52;1595750;88;98944;-67
2022/05/20 00:58:10;;;;;;;17.25;4.85;;;;;;;17.12;39.81;100807.92;1614462;86;27559;-67
2022/05/20 01:00:42;;;;;;;13.28;4.60;;;;;;;17.08;39.98;100811.80;1591679;88;99205;-65
2022/05/20 01:03:12;;;;;;;9.50;4.65;;;;;;;17.02;40.16;100809.03;1590645;88;26240;-68
2022/05/20 01:05:46;;;;;;;11.57;4.08;;;;;;;17.01;40.32;100807.29;1568630;89;26257;-66
2022/05/20 01:08:17;;;;;;;17.42;4.30;;;;;;;17.00;40.39;100813.67;1590988;88;98963;-66
2022/05/20 01:10:43;;;;;;;;;;;;;;;16.93;40.54;100808.29;1596295;88;27709;-66
2022/05/20 01:13:12;;;;;;;8.55;4.70;;;;;;;16.85;40.90;100807.45;1587146;88;84232;-66
2022/05/20 01:15:41;;;;;;;10.08;4.65;;;;;;;16.82;40.89;100803.59;1566430;90;25866;-66
2022/05/20 01:18:10;;;;;;;9.28;4.22;;;;;;;16.82;40.99;100810.84;1559741;90;25827;-66
2022/05/20 01:20:41;;;;;;;10.32;4.53;;;;;;;16.80;41.12;100808.24;1560102;90;98725;-66
2022/05/20 01:23:15;;;;;;;14.90;4.47;;;;;;;16.73;41.21;100803.34;1619858;86;27429;-66
2022/05/20 01:25:52;;;;;;;12.73;4.12;;;;;;;16.68;41.34;100800.94;1617044;86;98855;-66
2022/05/20 01:28:21;;;;;;;10.38;4.17;;;;;;;16.63;41.49;100805.75;1623505;86;25920;-67
2022/05/20 01:30:53;;;;;;;13.62;3.83;;;;;;;16.59;41.67;100805.57;1611378;86;99424;-65
2022/05/20 01:33:23;;;;;;;11.83;4.47;;;;;;;16.56;41.76;100812.53;1616272;86;25819;-65
2022/05/20 01:35:50;;;;;;;8.50;4.28;;;;;;;16.51;41.97;100802.02;1619511;86;28358;-65
2022/05/20 01:38:16;;;;;;;13.80;4.33;;;;;;;16.47;42.12;100800.48;1620210;86;98731;-66
2022/05/20 01:41:00;;;;;;;8.58;4.78;;;;;;;16.47;42.18;100801.83;1618855;86;25826;-66
2022/05/20 01:43:40;;;;;;;13.83;4.33;;;;;;;16.46;42.31;100796.52;1618597;86;98678;-68
2022/05/20 01:46:20;;;;;;;11.40;4.40;;;;;;;16.46;42.44;100797.39;1616946;86;25739;-66
2022/05/20 01:49:14;;;;;;;11.53;4.73;;;;;;;16.45;42.54;100797.00;1589020;88;99222;-65
2022/05/20 01:51:57;;;;;;;10.13;4.90;;;;;;;16.43;42.64;100794.88;1594503;88;25864;-66
2022/05/20 01:54:49;;;;;;;17.10;6.47;;;;;;;16.40;42.72;100803.20;1593285;88;99385;-67
2022/05/20 01:57:44;;;;;;;13.68;5.95;;;;;;;16.27;43.03;100806.80;1595998;88;25796;-66
2022/05/20 02:00:16;;;;;;;13.13;6.08;;;;;;;16.21;43.15;100799.94;1592717;88;25910;-65
2022/05/20 02:03:02;;;;;;;10.23;4.60;;;;;;;16.19;43.32;100811.34;1563724;90;98719;-68
2022/05/20 02:05:49;;;;;;;14.15;4.45;;;;;;;16.18;43.43;100814.53;1538436;90;25905;-66
2022/05/20 02:08:32;;;;;;;13.18;4.80;;;;;;;16.18;43.54;100820.42;1560434;89;99324;-66
2022/05/20 02:11:13;;;;;;;15.10;4.42;;;;;;;16.13;43.65;100807.20;1591817;88;25884;-68
2022/05/20 02:13:44;;;;;;;9.58;3.85;;;;;;;16.09;43.82;100808.84;1590108;88;98852;-67
2022/05/20 02:16:18;;;;;;;14.43;4.08;;;;;;;16.07;44.00;100810.28;1565349;89;27940;-67
2022/05/20 02:18:49;;;;;;;13.08;4.55;;;;;;;16.08;44.11;100801.69;1562226;89;99122;-66
2022/05/20 02:21:22;;;;;;;9.58;4.03;;;;;;;16.09;44.19;100815.12;1586626;88;25910;-66
2022/05/20 02:23:53;;;;;;;10.90;4.65;;;;;;;16.12;44.32;100814.05;1563683;89;25863;-68
2022/05/20 02:26:24;;;;;;;11.08;4.30;;;;;;;16.14;44.41;100818.88;1586494;88;98995;-66
2022/05/20 02:28:58;;;;;;;8.10;4.42;;;;;;;16.18;44.53;100824.48;1572872;87;27491;-67
2022/05/20 02:31:41;;;;;;;7.78;3.58;;;;;;;16.21;44.67;100824.28;1623497;85;98495;-67
2022/05/20 02:34:07;;;;;;;17.85;4.17;;;;;;;16.25;44.78;100820.41;1594312;88;25755;-67
2022/05/20 02:36:35;;;;;;;12.78;4.00;;;;;;;16.28;44.85;100824.28;1587094;88;99086;-67
2022/05/20 02:39:06;;;;;;;12.90;4.45;;;;;;;16.31;44.98;100822.73;1593577;88;25862;-67
2022/05/20 02:41:34;;;;;;;7.97;3.77;;;;;;;16.34;45.14;100827.94;1589125;88;28496;-67
2022/05/20 02:44:00;;;;;;;12.60;4.15;;;;;;;16.38;45.44;100822.72;1590460;88;99293;-67
2022/05/20 02:46:26;;;;;;;16.60;4.58;;;;;;;16.45;45.49;100821.35;1589333;88;25725;-67
2022/05/20 02:48:52;;;;;;;10.00;3.85;;;;;;;16.49;45.75;100826.95;1587908;88;99174;-67
2022/05/20 02:51:19;;;;;;;13.62;4.25;;;;;;;16.54;45.91;100819.41;1618324;87;25828;-67
2022/05/20 02:53:47;;;;;;;17.17;4.10;;;;;;;16.61;45.92;100826.63;1621578;86;27507;-67
2022/05/20 02:56:13;;;;;;;9.03;4.10;;;;;;;16.67;46.07;100834.38;1619184;86;98951;-67
2022/05/20 03:04:10;;;;;;;10.20;4.20;;;;;;;16.74;46.10;100828.95;1589863;88;25790;-67
2022/05/20 03:06:44;;;;;;;7.35;3.85;;;;;;;16.73;46.18;100824.51;1616100;87;99087;-67
2022/05/20 03:09:13;;;;;;;11.83;3.77;;;;;;;16.73;46.23;100822.28;1594089;88;25796;-67
2022/05/20 03:11:40;;;;;;;14.93;3.90;;;;;;;16.73;46.21;100820.45;1620247;87;26722;-67
2022/05/20 03:14:08;;;;;;;9.38;3.95;;;;;;;16.77;46.23;100831.45;1617422;85;98831;-66
2022/05/20 03:16:36;;;;;;;9.55;3.85;;;;;;;16.79;46.26;100838.13;1618972;87;26166;-66
2022/05/20 03:19:04;;;;;;;12.53;4.58;;;;;;;16.79;46.33;100836.77;1615479;87;98859;-66
2022/05/20 03:21:32;;;;;;;12.70;4.33;;;;;;;16.80;46.28;100839.86;1620002;86;25922;-66
2022/05/20 03:23:59;;;;;;;10.35;4.78;;;;;;;16.81;46.28;100841.59;1591575;88;25986;-66
2022/05/20 03:26:27;;;;;;;18.90;4.20;;;;;;;16.81;46.37;100842.95;1613978;87;98767;-66
2022/05/20 03:28:55;;;;;;;10.60;4.50;;;;;;;16.80;46.41;100850.69;1618144;86;25950;-66
2022/05/20 03:31:22;;;;;;;18.73;5.03;;;;;;;16.78;46.58;100855.34;1611653;87;99018;-65
2022/05/20 03:33:49;;;;;;;14.90;4.30;;;;;;;16.79;46.74;100847.59;1610047;87;26356;-65
2022/05/20 03:36:16;;;;;;;11.15;4.00;;;;;;;16.81;46.72;100849.23;1611485;87;25753;-66
2022/05/20 03:38:43;;;;;;;11.50;3.58;;;;;;;16.83;46.92;100854.06;1610701;86;98744;-66
2022/05/20 03:41:10;;;;;;;11.00;3.80;;;;;;;16.83;46.86;100860.83;1611483;87;25768;-65
2022/05/20 03:43:37;;;;;;;14.18;4.72;;;;;;;16.83;47.03;100861.31;1567679;88;99037;-66
2022/05/20 03:46:05;;;;;;;16.82;5.35;;;;;;;16.84;47.17;100861.70;1586182;88;26427;-66
2022/05/20 03:48:31;;;;;;;11.85;4.20;;;;;;;16.84;47.27;100863.92;1585186;88;99055;-67
2022/05/20 03:51:09;;;;;;;17.27;4.25;;;;;;;16.88;47.45;100867.30;1624801;86;25790;-68
2022/05/20 03:53:37;;;;;;;9.18;3.95;;;;;;;16.89;47.62;100863.63;1619244;87;26430;-66
2022/05/20 03:56:04;;;;;;;7.90;3.52;;;;;;;16.90;47.66;100874.83;1619589;87;98591;-66
2022/05/20 03:58:30;;;;;;;13.93;3.98;;;;;;;16.93;47.66;100873.77;1612797;87;25881;-67
2022/05/20 04:03:44;;;;;;;14.83;4.10;;;;;;;16.95;47.96;100869.11;1619671;86;25836;-67
2022/05/20 04:06:15;;;;;;;9.60;3.60;;;;;;;16.97;48.13;100878.00;1607030;87;25738;-68
2022/05/20 04:08:42;;;;;;;9.43;3.65;;;;;;;16.97;48.29;100880.72;1605595;87;98514;-67
2022/05/20 04:11:13;;;;;;;11.48;4.37;;;;;;;16.97;48.54;100880.23;1602358;87;26491;-68
2022/05/20 04:13:41;;;;;;;11.68;4.17;;;;;;;16.99;48.60;100890.95;1605791;87;99026;-65
2022/05/20 04:16:10;;;;;;;9.45;3.92;;;;;;;17.01;48.78;100894.44;1605363;87;25840;-65
2022/05/20 04:18:38;;;;;;;10.95;3.92;;;;;;;17.03;48.91;100892.49;1604060;87;99001;-68
2022/05/20 04:21:05;;;;;;;19.25;4.05;;;;;;;17.05;49.32;100900.03;1601458;87;27760;-68
2022/05/20 04:23:31;;;;;;;19.80;4.37;;;;;;;17.05;49.27;100906.80;1605005;87;25845;-67
2022/05/20 04:25:57;;;;;;;12.25;3.65;;;;;;;17.08;49.36;100911.53;1605351;87;98856;-68
2022/05/20 04:28:25;;;;;;;5.85;2.92;;;;;;;17.09;49.43;100903.79;1606545;87;26517;-66
2022/05/20 04:30:56;;;;;;;17.25;4.53;;;;;;;17.12;49.74;100917.12;1608980;86;99049;-66
2022/05/20 04:33:25;;;;;;;28.90;4.90;;;;;;;17.13;49.99;100908.03;1613237;87;27875;-66
2022/05/20 04:35:52;;;;;;;13.35;3.58;;;;;;;17.15;49.98;100909.28;1611100;86;25814;-66
2022/05/20 04:38:20;;;;;;;15.10;4.10;;;;;;;17.14;50.04;100909.77;1610181;87;98997;-66
2022/05/20 04:46:56;;;;;;;10.08;3.85;;;;;;;17.16;50.30;100920.02;1609246;87;26522;-66
2022/05/20 04:48:47;;;;;;;20.65;4.15;;;;;;;17.22;50.59;100940.90;1603843;87;99443;-66
2022/05/20 04:51:13;;;;;;;9.50;3.90;;;;;;;17.25;50.57;100939.34;1606911;87;26481;-66
2022/05/20 04:56:23;;;;;;;13.75;3.85;;;;;;;17.33;50.96;100942.41;1630615;85;98897;-66
2022/05/20 04:58:50;;;;;;;28.50;4.33;;;;;;;17.37;51.34;100931.27;1632823;84;27385;-66
2022/05/20 05:01:15;;;;;;;22.93;3.47;;;;;;;17.44;51.14;100931.23;1632154;85;98814;-67
2022/05/20 05:03:41;;;;;;;9.60;3.37;;;;;;;17.52;51.24;100934.78;1604331;87;25794;-66
2022/05/20 05:06:08;;;;;;;20.35;4.70;;;;;;;17.62;51.54;100932.31;1574596;89;25907;-67
2022/05/20 05:08:34;;;;;;;12.80;3.55;;;;;;;17.70;51.64;100931.34;1581936;89;98908;-67
2022/05/20 05:11:00;;;;;;;11.80;3.20;;;;;;;17.80;52.11;100934.67;1602968;87;27440;-67
2022/05/20 05:13:28;;;;;;;12.63;3.20;;;;;;;17.93;52.09;100929.76;1640359;84;98802;-67
2022/05/20 05:15:56;;;;;;;13.62;3.83;;;;;;;18.03;52.70;100930.86;1634186;85;26533;-67
2022/05/20 05:18:25;;;;;;;11.12;3.27;;;;;;;18.11;52.83;100931.19;1638039;85;25897;-66
2022/05/20 05:20:52;;;;;;;9.90;2.70;;;;;;;18.14;52.85;100939.98;1638543;85;99380;-66
2022/05/20 05:23:21;;;;;;;10.08;2.80;;;;;;;18.17;53.03;100949.75;1604770;87;28646;-66
2022/05/20 05:25:49;;;;;;;6.55;3.10;;;;;;;18.21;53.58;100943.09;1634577;85;98947;-68
2022/05/20 05:28:16;;;;;;;10.32;3.27;;;;;;;18.25;53.36;100947.82;1605385;87;25713;-66
2022/05/20 05:30:50;;;;;;;13.40;3.12;;;;;;;18.30;53.74;100938.87;1642117;85;99430;-68
2022/05/20 05:33:24;;;;;;;13.62;2.98;;;;;;;18.35;53.90;100933.49;1645682;85;25914;-66
2022/05/20 05:35:53;;;;;;;8.08;3.47;;;;;;;18.42;54.35;100940.22;1641380;85;27433;-68
2022/05/20 05:38:20;;;;;;;13.30;3.58;;;;;;;18.49;54.45;100952.37;1642484;85;99015;-66
2022/05/20 05:40:48;;;;;;;10.18;3.02;;;;;;;18.54;54.41;100948.47;1642410;85;26851;-65
2022/05/20 05:43:13;;;;;;;13.98;3.37;;;;;;;18.63;54.67;100955.98;1642833;84;99088;-64
2022/05/20 05:45:39;;;;;;;10.45;3.02;;;;;;;18.72;54.84;100954.83;1642219;85;26594;-65
2022/05/20 05:48:08;;;;;;;11.22;3.42;;;;;;;18.80;55.10;100963.29;1643021;85;27461;-66
2022/05/20 05:50:39;;;;;;;11.57;3.33;;;;;;;18.85;55.91;100958.88;1643295;85;98882;-65
2022/05/20 05:53:13;;;;;;;17.45;3.60;;;;;;;18.90;55.96;100950.40;1643295;84;25797;-66
2022/05/20 05:55:47;;;;;;;16.62;3.30;;;;;;;18.94;55.72;100947.84;1640931;84;98914;-66
2022/05/20 05:58:16;;;;;;;7.12;2.90;;;;;;;19.00;55.82;100961.84;1642493;85;26287;-67
2022/05/20 06:00:45;;;;;;;17.17;3.70;;;;;;;19.07;55.86;100952.25;1644503;85;98846;-66
2022/05/20 06:03:16;;;;;;;22.27;3.55;;;;;;;19.16;56.37;100953.91;1643021;85;25875;-66
2022/05/20 06:05:45;;;;;;;12.53;2.67;;;;;;;19.21;56.70;100957.16;1663743;85;25794;-65
2022/05/20 06:08:11;;;;;;;19.30;3.77;;;;;;;19.24;56.60;100955.57;1671690;85;98919;-65
2022/05/20 06:10:41;;;;;;;7.40;3.50;;;;;;;19.30;56.82;100961.91;1672490;85;25922;-65
2022/05/20 06:13:08;;;;;;;16.85;3.52;;;;;;;19.30;56.88;100959.19;1671237;84;98958;-63
2022/05/20 06:15:38;;;;;;;14.87;3.70;;;;;;;19.35;56.92;100964.66;1649175;85;25657;-65
2022/05/20 06:18:10;;;;;;;22.98;4.87;;;;;;;19.37;57.09;100967.27;1649352;85;25751;-62
2022/05/20 06:20:36;;;;;;;12.68;3.22;;;;;;;19.41;57.06;100973.71;1650117;85;98835;-63
2022/05/20 06:23:02;;;;;;;10.43;3.33;;;;;;;19.50;57.18;100964.00;1642254;85;26105;-63
2022/05/20 06:25:30;;;;;;;11.83;3.65;;;;;;;19.57;57.02;100970.74;1639120;85;98879;-63
2022/05/20 06:28:07;;;;;;;13.30;4.12;;;;;;;19.65;56.88;100968.31;1639610;85;25822;-63
2022/05/20 06:30:36;;;;;;;12.13;3.30;;;;;;;19.71;57.04;100971.92;1630864;85;99173;-64
2022/05/20 06:33:03;;;;;;;16.42;3.75;;;;;;;19.73;57.36;100968.59;1622399;86;26581;-64
2022/05/20 06:41:03;;;;;;;19.42;3.33;;;;;;;19.76;57.93;100988.76;1625847;86;25604;-64
2022/05/20 06:43:29;;;;;;;10.93;3.45;;;;;;;19.84;57.92;100975.06;1617023;85;99023;-64
2022/05/20 06:46:00;;;;;;;10.60;4.22;;;;;;;19.93;58.18;100978.44;1574462;89;26502;-64
2022/05/20 06:48:43;;;;;;;11.90;4.20;;;;;;;19.97;58.10;100971.77;1593167;88;26560;-64
2022/05/20 06:51:12;;;;;;;16.30;3.70;;;;;;;20.02;58.05;100978.59;1544149;89;98753;-64
2022/05/20 06:53:38;;;;;;;12.50;3.40;;;;;;;20.09;58.31;100974.91;1569294;89;25863;-64
2022/05/20 06:56:08;;;;;;;5.95;3.55;;;;;;;20.18;58.36;100974.19;1553944;88;99018;-64
2022/05/20 06:58:37;;;;;;;8.08;3.42;;;;;;;20.29;58.77;100984.23;1552618;90;25947;-64
2022/05/20 07:01:04;;;;;;;18.35;3.40;;;;;;;20.33;58.69;100975.70;1551436;90;98956;-64
2022/05/20 07:03:32;;;;;;;18.52;4.03;;;;;;;20.39;58.55;100982.55;1541848;91;29631;-63
2022/05/20 07:06:00;;;;;;;23.35;4.25;;;;;;;20.37;58.87;100985.86;1567721;89;25851;-64
2022/05/20 07:08:26;;;;;;;14.68;3.85;;;;;;;20.39;58.84;100986.14;1548838;90;99010;-63
2022/05/20 07:10:54;;;;;;;18.27;4.25;;;;;;;20.43;58.97;100988.63;1567835;89;25790;-64
2022/05/20 07:13:22;;;;;;;24.77;4.20;;;;;;;20.49;59.14;101009.92;1555819;88;99184;-64
2022/05/20 07:15:49;;;;;;;13.22;3.80;;;;;;;20.52;59.26;100994.70;1565342;89;27847;-64
2022/05/20 07:18:17;;;;;;;13.40;4.12;;;;;;;20.53;58.88;100990.50;1551732;90;26349;-64
2022/05/20 07:20:45;;;;;;;20.62;3.70;;;;;;;20.52;58.73;100992.85;1565965;89;99003;-64
2022/05/20 07:23:12;;;;;;;9.63;3.87;;;;;;;20.54;58.98;100985.92;1550018;90;26520;-64
2022/05/20 07:25:39;;;;;;;9.48;3.12;;;;;;;20.57;58.78;100991.12;1567095;89;98750;-65
2022/05/20 07:28:07;;;;;;;16.12;4.40;;;;;;;20.68;58.69;101007.48;1569668;89;27581;-64
2022/05/20 07:30:35;;;;;;;7.37;3.33;;;;;;;20.72;58.74;100995.34;1570707;89;26370;-63
2022/05/20 07:33:03;;;;;;;19.00;3.92;;;;;;;20.73;58.82;100992.99;1574061;89;98551;-63
2022/05/20 07:35:33;;;;;;;10.08;4.20;;;;;;;20.80;58.67;100993.37;1577034;88;26078;-62
2022/05/20 07:38:00;;;;;;;8.83;3.30;;;;;;;20.83;58.49;100984.41;1576620;86;98848;-63
2022/05/20 07:40:30;;;;;;;19.50;4.00;;;;;;;20.80;58.39;100992.87;1577310;88;27544;-64
2022/05/20 07:42:56;;;;;;;17.55;4.40;;;;;;;20.82;58.55;100984.54;1573447;86;98967;-63
2022/05/20 07:45:25;;;;;;;6.60;3.80;;;;;;;20.95;58.71;100986.15;1573906;89;25904;-62
2022/05/20 07:47:50;;;;;;;14.73;3.85;;;;;;;21.03;58.40;100991.84;1551742;91;25758;-63
2022/05/20 07:50:21;;;;;;;;;;;;;;;21.04;58.28;100987.26;1548619;89;99045;-64
2022/05/20 07:55:41;;;;;;;6.67;3.85;;;;;;;21.14;58.30;100987.38;1580092;88;99273;-63
2022/05/20 07:58:12;;;;;;;15.40;4.20;;;;;;;21.24;58.30;101008.33;1573982;88;25780;-64
2022/05/20 08:00:39;;;;;;;17.70;3.52;;;;;;;21.25;58.02;100998.30;1570816;89;25826;-63
2022/05/20 08:03:07;;;;;;;15.28;3.70;;;;;;;21.23;57.84;100991.61;1572286;88;99554;-64
2022/05/20 08:05:35;;;;;;;13.22;3.50;;;;;;;21.29;57.87;100988.87;1578612;89;28154;-64
2022/05/20 08:08:07;;;;;;;24.12;3.85;;;;;;;21.34;57.87;100985.27;1560527;89;99369;-65
2022/05/20 08:10:36;;;;;;;8.45;3.58;;;;;;;21.39;57.57;101008.92;1571117;89;25929;-64
2022/05/20 08:13:05;;;;;;;10.10;3.27;;;;;;;21.38;57.26;101002.61;1570397;88;99303;-63
2022/05/20 08:15:31;;;;;;;7.87;3.83;;;;;;;21.42;57.25;101003.22;1601142;88;25823;-63
2022/05/20 08:17:58;;;;;;;9.68;4.00;;;;;;;21.38;57.14;100999.02;1599425;88;27534;-63
2022/05/20 08:20:28;;;;;;;10.38;3.55;;;;;;;21.43;56.96;100998.63;1556601;90;98736;-63
2022/05/20 08:22:57;;;;;;;9.77;4.27;;;;;;;21.43;57.01;101000.00;1548809;89;26326;-63
2022/05/20 08:25:26;;;;;;;10.88;4.25;;;;;;;21.53;57.03;100997.73;1594763;88;98980;-63
2022/05/20 08:27:52;;;;;;;10.48;4.20;;;;;;;21.53;56.91;100997.73;1576526;89;25723;-63
2022/05/20 08:30:27;;;;;;;6.22;3.20;;;;;;;21.54;56.80;101003.56;1549807;89;27422;-63
2022/05/20 08:32:54;;;;;;;10.08;3.50;;;;;;;21.50;56.63;101002.09;1595687;87;99138;-62
2022/05/20 08:35:21;;;;;;;15.30;3.90;;;;;;;21.44;56.49;100995.78;1587896;88;25877;-63
2022/05/20 08:37:49;;;;;;;21.37;3.40;;;;;;;21.45;56.59;101008.42;1599443;86;99246;-63
2022/05/20 08:40:34;;;;;;;22.17;3.08;;;;;;;21.42;56.13;100999.13;1606009;87;25809;-63
2022/05/20 08:43:01;;;;;;;14.65;3.58;;;;;;;21.38;56.15;101004.47;1583167;88;99139;-63
2022/05/20 08:45:31;;;;;;;22.17;3.98;;;;;;;21.37;56.06;101007.69;1583480;88;27194;-63
2022/05/20 08:48:01;;;;;;;26.17;4.45;;;;;;;21.36;56.18;101011.41;1585853;88;25773;-63
2022/05/20 08:50:50;;;;;;;20.62;5.10;;;;;;;21.33;56.22;101009.44;1561708;88;99352;-63
2022/05/20 08:53:35;;;;;;;21.48;5.62;;;;;;;21.35;56.23;101001.99;1590184;87;25933;-63
2022/05/20 08:56:13;;;;;;;15.28;5.67;;;;;;;21.48;56.20;101015.48;1585654;88;99211;-63
2022/05/20 08:58:56;;;;;;;16.30;4.28;;;;;;;21.48;55.98;101011.39;1596510;87;26025;-63
2022/05/20 09:01:38;;;;;;;8.73;3.58;;;;;;;21.49;55.72;100998.12;1560791;89;99029;-63
2022/05/20 09:04:10;;;;;;;7.00;3.77;;;;;;;21.41;55.51;101014.26;1583450;87;25790;-63
2022/05/20 09:07:00;;;;;;;11.50;4.12;;;;;;;21.33;55.59;101002.62;1584259;88;25845;-63
2022/05/20 09:09:42;;;;;;;6.55;3.72;;;;;;;21.42;55.70;100992.81;1583824;88;98815;-63
2022/05/20 09:12:10;;;;;;;15.68;4.40;;;;;;;21.50;55.46;101002.58;1583732;88;26345;-63
2022/05/20 09:17:25;;;;;;;25.62;4.95;;;;;;;21.41;55.28;101002.85;1616548;86;25878;-63
2022/05/20 09:20:04;;;;;;;10.28;4.10;;;;;;;21.47;55.36;101001.47;1609784;86;99040;-64
2022/05/20 09:22:37;;;;;;;4.17;3.80;;;;;;;21.54;55.18;101010.38;1610962;87;27537;-63
2022/05/20 09:25:17;;;;;;;24.35;4.70;;;;;;;21.56;55.15;100999.34;1617695;86;25813;-66
2022/05/20 09:27:42;;;;;;;14.47;3.92;;;;;;;21.59;55.07;100992.27;1583086;87;98522;-63
2022/05/20 09:30:14;;;;;;;15.28;4.20;;;;;;;21.63;54.95;101017.80;1613274;87;25820;-62
2022/05/20 09:33:00;;;;;;;12.95;3.75;;;;;;;21.72;54.85;101003.88;1594046;87;98874;-63
2022/05/20 09:35:33;;;;;;;83.25;9.08;;;;;;;21.86;54.54;100996.76;1579838;88;27537;-64
2022/05/20 09:38:03;;;;;;;18.20;4.12;;;;;;;21.94;54.34;101003.80;1573954;89;99177;-64
2022/05/20 09:40:41;;;;;;;15.30;4.00;;;;;;;22.10;54.07;101006.11;1569537;89;25842;-65
2022/05/20 09:43:28;;;;;;;9.20;3.95;;;;;;;22.22;53.45;101021.44;1579138;87;25879;-66
2022/05/20 09:46:01;;;;;;;6.40;3.92;;;;;;;22.20;52.96;101000.23;1574564;87;98496;-64
2022/05/20 09:48:54;;;;;;;9.20;4.15;;;;;;;22.20;52.96;101000.23;1604418;87;26895;-65
2022/05/20 09:51:32;;;;;;;21.07;4.75;;;;;;;22.16;53.14;100989.20;1603644;87;98921;-62
2022/05/20 09:54:37;;;;;;;13.93;4.27;;;;;;;22.16;52.86;100991.94;1609500;87;25829;-64
2022/05/20 09:57:25;;;;;;;15.15;4.80;;;;;;;22.14;52.72;100998.03;1601996;87;98981;-63
2022/05/20 10:00:04;;;;;;;17.05;3.98;;;;;;;22.24;52.33;100992.64;1573840;88;26678;-65
2022/05/20 10:02:51;;;;;;;13.30;4.22;;;;;;;22.15;51.81;100974.31;1574057;88;98998;-66
2022/05/20 10:05:42;;;;;;;8.68;3.70;;;;;;;22.49;51.47;100974.97;1581266;89;25762;-65
2022/05/20 10:08:19;;;;;;;17.20;4.65;;;;;;;22.49;51.47;100974.97;1581324;90;99005;-66
2022/05/20 10:11:10;;;;;;;11.25;3.98;;;;;;;22.66;51.58;100968.88;1592212;89;27808;-64
2022/05/20 10:13:53;;;;;;;19.40;4.05;;;;;;;22.71;51.25;100952.08;1594708;89;25728;-64
2022/05/20 10:16:55;;;;;;;80.97;8.30;;;;;;;22.67;50.76;100955.08;1593322;89;98856;-63
2022/05/20 10:19:39;;;;;;;26.00;3.98;;;;;;;22.63;50.62;100960.95;1591887;89;25602;-63
2022/05/20 10:22:19;;;;;;;11.53;3.90;;;;;;;22.63;50.61;100959.09;1601876;87;98105;-63
2022/05/20 10:25:05;;;;;;;14.10;3.60;;;;;;;22.83;50.22;100966.05;1589965;88;25865;-64
2022/05/20 10:27:57;;;;;;;8.08;3.80;;;;;;;22.91;49.81;100959.39;1585717;88;99434;-63
2022/05/20 10:33:32;;;;;;;6.50;3.27;;;;;;;23.02;49.19;100970.72;1562982;90;99259;-64
2022/05/20 10:36:40;;;;;;;7.70;3.20;;;;;;;22.96;49.26;100949.77;1557379;91;26249;-63
2022/05/20 10:39:36;;;;;;;9.93;3.87;;;;;;;23.04;49.29;100955.91;1564116;89;99052;-64
2022/05/20 10:42:19;;;;;;;7.67;3.00;;;;;;;23.08;49.19;100953.77;1591498;87;25896;-64
2022/05/20 10:51:01;;;;;;;11.55;3.70;;;;;;;23.38;49.11;100949.59;1595075;88;98961;-65
2022/05/20 10:53:56;;;;;;;11.97;3.70;;;;;;;23.43;48.80;100949.13;1576924;89;25778;-64
2022/05/20 10:56:47;;;;;;;7.00;3.60;;;;;;;23.48;48.63;100947.70;1592536;87;99111;-65
2022/05/20 10:59:25;;;;;;;;;;;;;;;23.50;48.42;100940.21;1599490;88;27535;-63
2022/05/20 11:02:29;;;;;;;17.37;4.42;;;;;;;23.48;48.25;100933.16;1584867;88;25876;-63
2022/05/20 11:05:35;;;;;;;13.68;3.22;;;;;;;23.48;47.92;100932.65;1557639;88;26020;-63
2022/05/20 11:08:33;;;;;;;5.20;2.90;;;;;;;23.53;47.31;100930.34;1583972;88;25918;-63
2022/05/20 11:11:10;;;;;;;12.50;2.58;;;;;;;23.59;46.96;100943.49;1590408;88;98666;-63
2022/05/20 11:13:50;;;;;;;20.43;4.20;;;;;;;23.66;46.35;100931.97;1583653;88;27531;-63
2022/05/20 11:16:50;;;;;;;5.50;3.50;;;;;;;23.68;46.42;100951.84;1585275;88;99011;-65
2022/05/20 11:19:27;;;;;;;5.83;3.00;;;;;;;23.77;46.22;100936.80;1585886;88;25765;-65
2022/05/20 11:22:19;;;;;;;11.83;3.50;;;;;;;23.78;46.37;100924.84;1582029;88;98846;-63
2022/05/20 11:25:00;;;;;;;4.12;3.17;;;;;;;23.91;46.23;100925.91;1583334;88;25744;-63
2022/05/20 11:28:03;;;;;;;11.63;2.70;;;;;;;23.98;46.26;100922.09;1590742;87;99237;-63
2022/05/20 11:31:09;;;;;;;16.67;3.05;;;;;;;23.86;45.66;100917.27;1566000;89;25838;-63
2022/05/20 11:34:12;;;;;;;7.00;3.50;;;;;;;24.01;45.54;100910.34;1603055;86;99453;-65
2022/05/20 11:37:17;;;;;;;11.85;2.72;;;;;;;24.21;44.70;100915.27;1615313;86;25911;-64
2022/05/20 11:40:37;;;;;;;10.88;2.60;;;;;;;24.30;44.42;100905.33;1609533;86;99261;-62
2022/05/20 11:43:23;;;;;;;10.32;2.90;;;;;;;24.38;43.98;100899.98;1614000;86;27524;-63
2022/05/20 11:46:29;;;;;;;10.13;3.35;;;;;;;24.41;43.57;100893.69;1612840;87;98969;-64
2022/05/20 11:49:17;;;;;;;10.68;2.80;;;;;;;24.31;43.67;100886.02;1636553;86;25764;-64
2022/05/20 11:52:15;;;;;;;9.58;2.85;;;;;;;24.33;43.57;100883.98;1621846;86;98905;-64
2022/05/20 11:54:50;;;;;;;11.00;3.00;;;;;;;24.42;43.34;100863.05;1616685;87;25789;-65
2022/05/20 11:57:25;;;;;;;9.15;3.05;;;;;;;24.66;43.65;100864.73;1598603;87;99163;-67
2022/05/20 12:00:03;;;;;;;14.35;3.15;;;;;;;24.88;42.59;100876.66;1589570;88;25970;-65
2022/05/20 12:02:34;;;;;;;17.30;3.22;;;;;;;24.93;42.67;100855.13;1635838;85;25886;-64
2022/05/20 12:05:01;;;;;;;6.85;2.70;;;;;;;25.19;42.30;100874.98;1635771;86;98803;-63
2022/05/20 12:07:31;;;;;;;5.22;3.05;;;;;;;25.12;41.98;100854.68;1590845;86;25905;-64
2022/05/20 12:10:00;;;;;;;17.85;4.30;;;;;;;25.21;42.15;100859.23;1612855;86;98661;-66
2022/05/20 12:12:32;;;;;;;7.35;3.00;;;;;;;25.35;42.01;100857.32;1612716;87;25813;-62
2022/05/20 12:15:15;;;;;;;11.20;3.30;;;;;;;25.53;41.28;100854.06;1614337;86;98985;-65
2022/05/20 12:17:49;;;;;;;9.38;3.62;;;;;;;25.61;40.82;100843.66;1611444;87;26985;-65
2022/05/20 12:26:00;;;;;;;21.25;3.67;;;;;;;25.80;39.31;100841.27;1637098;86;26262;-64
2022/05/20 12:28:31;;;;;;;5.53;2.35;;;;;;;25.73;39.39;100838.81;1622728;86;99315;-64
2022/05/20 12:31:24;;;;;;;7.87;2.72;;;;;;;25.78;39.21;100830.45;1616771;87;25876;-64
2022/05/20 12:34:06;;;;;;;22.37;3.30;;;;;;;25.93;38.80;100851.33;1595783;86;98923;-65